Time,TemperatureF,DewpointF,PressureIn,WindDirection,WindDirectionDegrees,WindSpeedMPH,WindSpeedGustMPH,Humidity,HourlyPrecipIn,Conditions,Clouds,dailyrainin,SoftwareType,DateUTC
2013-08-20 00:00:00,65.1,49.0,29.89,WNW,286,10.0,14.0,56,0.00,,---,0.00,VWS V14.01,2013-08-20 07:00:00,
2013-08-20 00:01:00,65.2,49.1,29.89,West,277,8.0,13.0,56,0.00,,---,0.00,VWS V14.01,2013-08-20 07:01:00,
2013-08-20 00:06:00,65.6,49.0,29.89,West,259,5.0,13.0,55,0.00,,---,0.00,VWS V14.01,2013-08-20 07:06:00,
2013-08-20 00:11:00,64.8,49.2,29.89,West,261,6.0,13.0,57,0.00,,---,0.00,VWS V14.01,2013-08-20 07:11:00,
2013-08-20 00:15:00,64.6,49.0,29.89,West,279,3.0,13.0,57,0.00,,---,0.00,VWS V14.01,2013-08-20 07:15:00,
2013-08-20 00:16:00,64.6,49.0,29.89,WNW,294,0.0,3.0,57,0.00,,---,0.00,VWS V14.01,2013-08-20 07:16:00,
2013-08-20 00:21:00,64.4,48.8,29.89,NNW,333,0.0,7.0,57,0.00,,---,0.00,VWS V14.01,2013-08-20 07:21:00,
2013-08-20 00:25:00,64.7,48.7,29.89,NW,304,5.0,7.0,56,0.00,,---,0.00,VWS V14.01,2013-08-20 07:25:00,
2013-08-20 00:30:00,65.0,48.9,29.89,WNW,291,0.0,5.0,56,0.00,,---,0.00,VWS V14.01,2013-08-20 07:30:00,
2013-08-20 00:35:00,65.0,48.9,29.89,NW,309,0.0,5.0,56,0.00,,---,0.00,VWS V14.01,2013-08-20 07:35:00,
2013-08-20 00:40:00,65.1,48.5,29.89,NW,309,10.0,10.0,55,0.00,,---,0.00,VWS V14.01,2013-08-20 07:40:00,
2013-08-20 00:45:00,65.2,48.6,29.90,NNW,340,6.0,7.0,55,0.00,,---,0.00,VWS V14.01,2013-08-20 07:45:00,
2013-08-20 00:50:00,65.6,48.5,29.90,NNW,331,0.0,9.0,54,0.00,,---,0.00,VWS V14.01,2013-08-20 07:50:00,
2013-08-20 00:55:00,65.1,48.5,29.90,NNW,333,0.0,9.0,55,0.00,,---,0.00,VWS V14.01,2013-08-20 07:55:00,
2013-08-20 01:00:00,64.4,48.4,29.90,NW,311,0.0,0.0,56,0.00,,---,0.00,VWS V14.01,2013-08-20 08:00:00,
2013-08-20 01:05:00,63.5,48.5,29.90,NW,305,0.0,2.0,58,0.00,,---,0.00,VWS V14.01,2013-08-20 08:05:00,
2013-08-20 01:10:00,63.4,48.4,29.90,WNW,298,4.0,4.0,58,0.00,,---,0.00,VWS V14.01,2013-08-20 08:10:00,
2013-08-20 01:15:00,63.7,48.2,29.90,West,271,6.0,6.0,57,0.00,,---,0.00,VWS V14.01,2013-08-20 08:15:00,
2013-08-20 01:20:00,63.7,48.2,29.90,West,271,3.0,6.0,57,0.00,,---,0.00,VWS V14.01,2013-08-20 08:20:00,
2013-08-20 01:25:00,63.3,48.3,29.90,West,271,0.0,6.0,58,0.00,,---,0.00,VWS V14.01,2013-08-20 08:25:00,
2013-08-20 01:30:00,63.2,48.7,29.90,West,271,0.0,0.0,59,0.00,,---,0.00,VWS V14.01,2013-08-20 08:30:00,
2013-08-20 01:35:00,62.7,48.2,29.90,West,271,0.0,0.0,59,0.00,,---,0.00,VWS V14.01,2013-08-20 08:35:00,
2013-08-20 01:40:00,61.8,48.2,29.90,West,271,0.0,0.0,61,0.00,,---,0.00,VWS V14.01,2013-08-20 08:40:00,
2013-08-20 01:45:00,61.0,47.9,29.90,West,271,0.0,0.0,62,0.00,,---,0.00,VWS V14.01,2013-08-20 08:45:00,
2013-08-20 01:50:00,60.9,47.8,29.90,West,271,0.0,0.0,62,0.00,,---,0.00,VWS V14.01,2013-08-20 08:50:00,
2013-08-20 01:55:00,60.8,47.7,29.90,West,271,0.0,0.0,62,0.00,,---,0.00,VWS V14.01,2013-08-20 08:55:00,
2013-08-20 02:00:00,60.4,47.8,29.90,West,271,0.0,0.0,63,0.00,,---,0.00,VWS V14.01,2013-08-20 09:00:00,
2013-08-20 02:05:00,60.2,48.0,29.90,West,271,0.0,0.0,64,0.00,,---,0.00,VWS V14.01,2013-08-20 09:05:00,
2013-08-20 02:10:00,60.0,48.2,29.90,West,272,0.0,0.0,65,0.00,,---,0.00,VWS V14.01,2013-08-20 09:10:00,
2013-08-20 02:15:00,59.0,47.7,29.90,NNE,19,0.0,0.0,66,0.00,,---,0.00,VWS V14.01,2013-08-20 09:15:00,
2013-08-20 02:20:00,58.5,47.6,29.90,NNE,19,0.0,0.0,67,0.00,,---,0.00,VWS V14.01,2013-08-20 09:20:00,
2013-08-20 02:25:00,57.5,47.0,29.91,NNE,20,0.0,0.0,68,0.00,,---,0.00,VWS V14.01,2013-08-20 09:25:00,
2013-08-20 02:30:00,56.7,47.0,29.91,NNE,20,0.0,0.0,70,0.00,,---,0.00,VWS V14.01,2013-08-20 09:30:00,
2013-08-20 02:35:00,55.8,46.9,29.91,NNE,20,0.0,0.0,72,0.00,,---,0.00,VWS V14.01,2013-08-20 09:35:00,
2013-08-20 02:40:00,55.5,47.0,29.91,NNE,17,0.0,1.0,73,0.00,,---,0.00,VWS V14.01,2013-08-20 09:40:00,
2013-08-20 02:45:00,56.7,47.4,29.91,NNE,17,0.0,0.0,71,0.00,,---,0.00,VWS V14.01,2013-08-20 09:45:00,
2013-08-20 02:50:00,58.4,47.9,29.91,North,349,0.0,5.0,68,0.00,,---,0.00,VWS V14.01,2013-08-20 09:50:00,
2013-08-20 02:55:00,57.9,47.4,29.91,North,355,0.0,5.0,68,0.00,,---,0.00,VWS V14.01,2013-08-20 09:55:00,
2013-08-20 03:00:00,57.2,47.5,29.91,North,355,0.0,0.0,70,0.00,,---,0.00,VWS V14.01,2013-08-20 10:00:00,
2013-08-20 03:05:00,57.7,48.0,29.91,NNW,340,0.0,5.0,70,0.00,,---,0.00,VWS V14.01,2013-08-20 10:05:00,
2013-08-20 03:10:00,57.2,47.9,29.91,NNW,340,0.0,5.0,71,0.00,,---,0.00,VWS V14.01,2013-08-20 10:10:00,
2013-08-20 03:15:00,56.7,47.4,29.91,North,9,0.0,0.0,71,0.00,,---,0.00,VWS V14.01,2013-08-20 10:15:00,
2013-08-20 03:20:00,56.6,48.4,29.91,NNW,341,6.0,8.0,74,0.00,,---,0.00,VWS V14.01,2013-08-20 10:20:00,
2013-08-20 03:25:00,58.2,48.8,29.91,NNW,340,6.0,9.0,71,0.00,,---,0.00,VWS V14.01,2013-08-20 10:25:00,
2013-08-20 03:30:00,59.4,49.2,29.91,NNW,332,3.0,5.0,69,0.00,,---,0.00,VWS V14.01,2013-08-20 10:30:00,
2013-08-20 03:35:00,59.5,48.9,29.91,NNW,332,4.0,5.0,68,0.00,,---,0.00,VWS V14.01,2013-08-20 10:35:00,
2013-08-20 03:40:00,58.3,47.8,29.91,NNW,331,0.0,5.0,68,0.00,,---,0.00,VWS V14.01,2013-08-20 10:40:00,
2013-08-20 03:45:00,56.8,47.5,29.91,NNW,331,0.0,0.0,71,0.00,,---,0.00,VWS V14.01,2013-08-20 10:45:00,
2013-08-20 03:50:00,56.0,47.5,29.91,NNW,332,0.0,0.0,73,0.00,,---,0.00,VWS V14.01,2013-08-20 10:50:00,
2013-08-20 03:55:00,55.6,47.8,29.92,NNW,332,0.0,0.0,75,0.00,,---,0.00,VWS V14.01,2013-08-20 10:55:00,
2013-08-20 04:00:00,55.0,47.2,29.92,North,355,0.0,0.0,75,0.00,,---,0.00,VWS V14.01,2013-08-20 11:00:00,
2013-08-20 04:05:00,54.8,47.4,29.92,North,355,0.0,0.0,76,0.00,,---,0.00,VWS V14.01,2013-08-20 11:05:00,
2013-08-20 04:10:00,54.2,46.8,29.91,North,355,0.0,0.0,76,0.00,,---,0.00,VWS V14.01,2013-08-20 11:10:00,
2013-08-20 04:15:00,53.8,47.1,29.92,North,355,0.0,0.0,78,0.00,,---,0.00,VWS V14.01,2013-08-20 11:15:00,
2013-08-20 04:20:00,53.5,47.5,29.91,North,355,0.0,0.0,80,0.00,,---,0.00,VWS V14.01,2013-08-20 11:20:00,
2013-08-20 04:25:00,54.5,48.1,29.91,North,355,0.0,0.0,79,0.00,,---,0.00,VWS V14.01,2013-08-20 11:25:00,
2013-08-20 04:30:00,55.8,48.4,29.91,North,355,0.0,0.0,76,0.00,,---,0.00,VWS V14.01,2013-08-20 11:30:00,
2013-08-20 04:35:00,55.8,48.0,29.92,North,355,0.0,0.0,75,0.00,,---,0.00,VWS V14.01,2013-08-20 11:35:00,
2013-08-20 04:40:00,54.1,46.4,29.92,North,360,0.0,0.0,75,0.00,,---,0.00,VWS V14.01,2013-08-20 11:40:00,
2013-08-20 04:45:00,52.3,45.7,29.91,NNE,29,0.0,0.0,78,0.00,,---,0.00,VWS V14.01,2013-08-20 11:45:00,
2013-08-20 04:50:00,51.5,45.2,29.91,NE,40,5.0,8.0,79,0.00,,---,0.00,VWS V14.01,2013-08-20 11:50:00,
2013-08-20 04:55:00,51.3,45.0,29.92,NE,40,6.0,8.0,79,0.00,,---,0.00,VWS V14.01,2013-08-20 11:55:00,
2013-08-20 05:00:00,51.5,45.2,29.92,NE,38,5.0,7.0,79,0.00,,---,0.00,VWS V14.01,2013-08-20 12:00:00,
2013-08-20 05:05:00,52.2,45.6,29.92,NE,36,5.0,7.0,78,0.00,,---,0.00,VWS V14.01,2013-08-20 12:05:00,
2013-08-20 05:10:00,52.5,45.5,29.92,NE,44,3.0,7.0,77,0.00,,---,0.00,VWS V14.01,2013-08-20 12:10:00,
2013-08-20 05:15:00,52.4,45.4,29.92,ENE,67,4.0,6.0,77,0.00,,---,0.00,VWS V14.01,2013-08-20 12:15:00,
2013-08-20 05:20:00,52.8,45.5,29.92,NE,36,3.0,6.0,76,0.00,,---,0.00,VWS V14.01,2013-08-20 12:20:00,
2013-08-20 05:25:00,52.4,45.4,29.92,NE,45,6.0,6.0,77,0.00,,---,0.00,VWS V14.01,2013-08-20 12:25:00,
2013-08-20 05:30:00,52.0,45.0,29.93,NE,46,0.0,0.0,77,0.00,,---,0.00,VWS V14.01,2013-08-20 12:30:00,
2013-08-20 05:35:00,51.5,45.2,29.93,NE,45,0.0,0.0,79,0.00,,---,0.00,VWS V14.01,2013-08-20 12:35:00,
2013-08-20 05:40:00,51.2,44.9,29.93,NE,46,0.0,0.0,79,0.00,,---,0.00,VWS V14.01,2013-08-20 12:40:00,
2013-08-20 05:45:00,50.9,45.0,29.93,NE,46,0.0,0.0,80,0.00,,---,0.00,VWS V14.01,2013-08-20 12:45:00,
2013-08-20 05:49:00,51.0,45.1,29.93,NE,46,0.0,0.0,80,0.00,,---,0.00,VWS V14.01,2013-08-20 12:49:00,
2013-08-20 05:54:00,51.8,45.5,29.93,NE,46,0.0,0.0,79,0.00,,---,0.00,VWS V14.01,2013-08-20 12:54:00,
2013-08-20 05:59:00,51.6,45.0,29.93,NE,45,0.0,0.0,78,0.00,,---,0.00,VWS V14.01,2013-08-20 12:59:00,
2013-08-20 06:00:00,51.7,45.1,29.93,NE,46,0.0,0.0,78,0.00,,---,0.00,VWS V14.01,2013-08-20 13:00:00,
2013-08-20 06:04:00,50.5,44.6,29.93,NE,45,0.0,0.0,80,0.00,,---,0.00,VWS V14.01,2013-08-20 13:04:00,
2013-08-20 06:09:00,49.9,45.0,29.93,NE,45,0.0,0.0,83,0.00,,---,0.00,VWS V14.01,2013-08-20 13:09:00,
2013-08-20 06:14:00,49.8,45.2,29.93,NE,46,0.0,0.0,84,0.00,,---,0.00,VWS V14.01,2013-08-20 13:14:00,
2013-08-20 06:15:00,49.8,45.2,29.93,NE,45,0.0,0.0,84,0.00,,---,0.00,VWS V14.01,2013-08-20 13:15:00,
2013-08-20 06:19:00,49.6,44.7,29.93,NE,46,0.0,0.0,83,0.00,,---,0.00,VWS V14.01,2013-08-20 13:19:00,
2013-08-20 06:24:00,49.4,44.8,29.94,NE,46,0.0,0.0,84,0.00,,---,0.00,VWS V14.01,2013-08-20 13:24:00,
2013-08-20 06:29:00,49.3,44.7,29.94,NE,46,0.0,0.0,84,0.00,,---,0.00,VWS V14.01,2013-08-20 13:29:00,
2013-08-20 06:30:00,49.3,44.7,29.94,NE,45,0.0,0.0,84,0.00,,---,0.00,VWS V14.01,2013-08-20 13:30:00,
2013-08-20 06:34:00,49.5,45.2,29.94,NE,46,0.0,0.0,85,0.00,,---,0.00,VWS V14.01,2013-08-20 13:34:00,
2013-08-20 06:39:00,49.5,44.6,29.94,NE,45,0.0,0.0,83,0.00,,---,0.00,VWS V14.01,2013-08-20 13:39:00,
2013-08-20 06:44:00,49.7,44.4,29.94,NE,46,0.0,0.0,82,0.00,,---,0.00,VWS V14.01,2013-08-20 13:44:00,
2013-08-20 06:45:00,49.7,44.4,29.94,NE,45,0.0,0.0,82,0.00,,---,0.00,VWS V14.01,2013-08-20 13:45:00,
2013-08-20 06:49:00,50.1,44.5,29.94,NE,46,0.0,0.0,81,0.00,,---,0.00,VWS V14.01,2013-08-20 13:49:00,
2013-08-20 06:54:00,50.5,44.9,29.94,NE,46,0.0,0.0,81,0.00,,---,0.00,VWS V14.01,2013-08-20 13:54:00,
2013-08-20 06:59:00,50.8,44.9,29.95,NE,45,2.0,2.0,80,0.00,,---,0.00,VWS V14.01,2013-08-20 13:59:00,
2013-08-20 07:00:00,50.8,44.9,29.95,NE,46,2.0,3.0,80,0.00,,---,0.00,VWS V14.01,2013-08-20 14:00:00,
2013-08-20 07:04:00,51.3,45.0,29.94,NNE,31,0.0,4.0,79,0.00,,---,0.00,VWS V14.01,2013-08-20 14:04:00,
2013-08-20 07:09:00,51.6,45.3,29.95,NNE,31,0.0,4.0,79,0.00,,---,0.00,VWS V14.01,2013-08-20 14:09:00,
2013-08-20 07:14:00,51.4,45.8,29.95,NNE,31,0.0,0.0,81,0.00,,---,0.00,VWS V14.01,2013-08-20 14:14:00,
2013-08-20 07:15:00,51.4,45.8,29.95,NNE,31,0.0,4.0,81,0.00,,---,0.00,VWS V14.01,2013-08-20 14:15:00,
2013-08-20 07:19:00,51.6,46.0,29.95,NNE,30,0.0,0.0,81,0.00,,---,0.00,VWS V14.01,2013-08-20 14:19:00,
2013-08-20 07:24:00,51.9,45.9,29.95,NE,45,3.0,3.0,80,0.00,,---,0.00,VWS V14.01,2013-08-20 14:24:00,
2013-08-20 07:29:00,52.1,45.8,29.95,NE,46,0.0,3.0,79,0.00,,---,0.00,VWS V14.01,2013-08-20 14:29:00,
2013-08-20 07:30:00,52.1,45.8,29.95,NE,46,0.0,3.0,79,0.00,,---,0.00,VWS V14.01,2013-08-20 14:30:00,
2013-08-20 07:34:00,52.4,46.1,29.96,NE,46,0.0,0.0,79,0.00,,---,0.00,VWS V14.01,2013-08-20 14:34:00,
2013-08-20 07:39:00,53.2,46.2,29.96,NE,46,0.0,0.0,77,0.00,,---,0.00,VWS V14.01,2013-08-20 14:39:00,
2013-08-20 07:44:00,54.1,47.4,29.95,NE,46,0.0,0.0,78,0.00,,---,0.00,VWS V14.01,2013-08-20 14:44:00,
2013-08-20 07:45:00,54.1,47.4,29.95,NE,46,0.0,0.0,78,0.00,,---,0.00,VWS V14.01,2013-08-20 14:45:00,
2013-08-20 07:49:00,54.8,47.7,29.95,NE,45,0.0,0.0,77,0.00,,---,0.00,VWS V14.01,2013-08-20 14:49:00,
2013-08-20 07:54:00,55.5,48.1,29.96,NE,46,0.0,0.0,76,0.00,,---,0.00,VWS V14.01,2013-08-20 14:54:00,
2013-08-20 07:59:00,55.9,47.7,29.96,NE,45,0.0,0.0,74,0.00,,---,0.00,VWS V14.01,2013-08-20 14:59:00,
2013-08-20 08:00:00,55.9,47.7,29.96,NE,46,0.0,0.0,74,0.00,,---,0.00,VWS V14.01,2013-08-20 15:00:00,
2013-08-20 08:04:00,56.7,48.5,29.96,NE,46,0.0,0.0,74,0.00,,---,0.00,VWS V14.01,2013-08-20 15:04:00,
2013-08-20 08:09:00,57.6,48.3,29.96,NE,46,0.0,0.0,71,0.00,,---,0.00,VWS V14.01,2013-08-20 15:09:00,
2013-08-20 08:14:00,58.2,47.7,29.95,NE,46,0.0,0.0,68,0.00,,---,0.00,VWS V14.01,2013-08-20 15:14:00,
2013-08-20 08:15:00,58.3,47.8,29.95,NE,46,0.0,0.0,68,0.00,,---,0.00,VWS V14.01,2013-08-20 15:15:00,
2013-08-20 08:19:00,59.0,49.2,29.96,NE,46,0.0,0.0,70,0.00,,---,0.00,VWS V14.01,2013-08-20 15:19:00,
2013-08-20 08:24:00,59.0,49.2,29.95,NE,45,0.0,0.0,70,0.00,,---,0.00,VWS V14.01,2013-08-20 15:24:00,
2013-08-20 08:29:00,59.0,48.5,29.96,NE,46,0.0,0.0,68,0.00,,---,0.00,VWS V14.01,2013-08-20 15:29:00,
2013-08-20 08:30:00,59.0,48.5,29.96,NE,46,0.0,0.0,68,0.00,,---,0.00,VWS V14.01,2013-08-20 15:30:00,
2013-08-20 08:34:00,59.2,48.3,29.95,NE,46,0.0,0.0,67,0.00,,---,0.00,VWS V14.01,2013-08-20 15:34:00,
2013-08-20 08:39:00,59.6,49.4,29.95,NE,46,0.0,0.0,69,0.00,,---,0.00,VWS V14.01,2013-08-20 15:39:00,
2013-08-20 08:44:00,60.2,49.6,29.95,NE,46,0.0,0.0,68,0.00,,---,0.00,VWS V14.01,2013-08-20 15:44:00,
2013-08-20 08:45:00,60.2,49.6,29.95,NE,46,0.0,0.0,68,0.00,,---,0.00,VWS V14.01,2013-08-20 15:45:00,
2013-08-20 08:49:00,60.7,49.7,29.95,NE,45,0.0,0.0,67,0.00,,---,0.00,VWS V14.01,2013-08-20 15:49:00,
2013-08-20 08:54:00,61.2,50.2,29.95,NE,46,0.0,0.0,67,0.00,,---,0.00,VWS V14.01,2013-08-20 15:54:00,
2013-08-20 08:59:00,61.9,49.6,29.95,NE,45,0.0,0.0,64,0.00,,---,0.00,VWS V14.01,2013-08-20 15:59:00,
2013-08-20 09:00:00,61.9,49.6,29.95,NE,45,0.0,0.0,64,0.00,,---,0.00,VWS V14.01,2013-08-20 16:00:00,
2013-08-20 09:04:00,61.8,49.1,29.95,NE,46,0.0,0.0,63,0.00,,---,0.00,VWS V14.01,2013-08-20 16:04:00,
2013-08-20 09:09:00,62.3,49.6,29.95,NE,46,0.0,0.0,63,0.00,,---,0.00,VWS V14.01,2013-08-20 16:09:00,
2013-08-20 09:14:00,63.0,49.8,29.94,NE,46,0.0,0.0,62,0.00,,---,0.00,VWS V14.01,2013-08-20 16:14:00,
2013-08-20 09:15:00,63.1,49.9,29.94,NE,46,0.0,0.0,62,0.00,,---,0.00,VWS V14.01,2013-08-20 16:15:00,
2013-08-20 09:19:00,63.6,49.0,29.94,NE,46,0.0,0.0,59,0.00,,---,0.00,VWS V14.01,2013-08-20 16:19:00,
2013-08-20 09:24:00,63.5,48.0,29.94,NE,46,0.0,0.0,57,0.00,,---,0.00,VWS V14.01,2013-08-20 16:24:00,
2013-08-20 09:29:00,63.5,47.5,29.94,NE,45,0.0,0.0,56,0.00,,---,0.00,VWS V14.01,2013-08-20 16:29:00,
2013-08-20 09:30:00,63.5,47.1,29.94,NE,46,0.0,0.0,55,0.00,,---,0.00,VWS V14.01,2013-08-20 16:30:00,
2013-08-20 09:34:00,63.7,46.3,29.94,NE,46,0.0,0.0,53,0.00,,---,0.00,VWS V14.01,2013-08-20 16:34:00,
2013-08-20 09:39:00,64.3,46.8,29.95,NE,46,0.0,0.0,53,0.00,,---,0.00,VWS V14.01,2013-08-20 16:39:00,
2013-08-20 09:44:00,65.5,47.9,29.94,NE,46,0.0,0.0,53,0.00,,---,0.00,VWS V14.01,2013-08-20 16:44:00,
2013-08-20 09:45:00,65.5,47.9,29.94,NE,46,0.0,0.0,53,0.00,,---,0.00,VWS V14.01,2013-08-20 16:45:00,
2013-08-20 09:49:00,65.8,48.2,29.94,ENE,60,0.0,0.0,53,0.00,,---,0.00,VWS V14.01,2013-08-20 16:49:00,
2013-08-20 09:54:00,66.1,46.9,29.95,ENE,60,0.0,0.0,50,0.00,,---,0.00,VWS V14.01,2013-08-20 16:54:00,
2013-08-20 09:59:00,66.7,48.5,29.94,ENE,60,0.0,0.0,52,0.00,,---,0.00,VWS V14.01,2013-08-20 16:59:00,
2013-08-20 10:00:00,66.8,49.1,29.94,ENE,60,0.0,0.0,53,0.00,,---,0.00,VWS V14.01,2013-08-20 17:00:00,
2013-08-20 10:04:00,66.5,47.8,29.94,ENE,60,0.0,0.0,51,0.00,,---,0.00,VWS V14.01,2013-08-20 17:04:00,
2013-08-20 10:09:00,66.7,48.0,29.94,ENE,60,0.0,0.0,51,0.00,,---,0.00,VWS V14.01,2013-08-20 17:09:00,
2013-08-20 10:14:00,66.9,48.2,29.94,ENE,60,0.0,0.0,51,0.00,,---,0.00,VWS V14.01,2013-08-20 17:14:00,
2013-08-20 10:15:00,67.0,48.3,29.94,ENE,60,0.0,0.0,51,0.00,,---,0.00,VWS V14.01,2013-08-20 17:15:00,
2013-08-20 10:19:00,67.7,48.4,29.94,ENE,60,0.0,3.0,50,0.00,,---,0.00,VWS V14.01,2013-08-20 17:19:00,
2013-08-20 10:24:00,68.1,46.6,29.94,ENE,61,0.0,3.0,46,0.00,,---,0.00,VWS V14.01,2013-08-20 17:24:00,
2013-08-20 10:29:00,68.0,46.5,29.94,ENE,60,0.0,3.0,46,0.00,,---,0.00,VWS V14.01,2013-08-20 17:29:00,
2013-08-20 10:30:00,68.0,46.5,29.94,ENE,61,0.0,3.0,46,0.00,,---,0.00,VWS V14.01,2013-08-20 17:30:00,
2013-08-20 10:34:00,68.6,47.6,29.94,ENE,60,0.0,0.0,47,0.00,,---,0.00,VWS V14.01,2013-08-20 17:34:00,
2013-08-20 10:39:00,69.8,47.5,29.93,ENE,60,0.0,0.0,45,0.00,,---,0.00,VWS V14.01,2013-08-20 17:39:00,
2013-08-20 10:44:00,70.4,46.2,29.93,ENE,62,0.0,2.0,42,0.00,,---,0.00,VWS V14.01,2013-08-20 17:44:00,
2013-08-20 10:45:00,70.5,47.6,29.93,ENE,61,0.0,2.0,44,0.00,,---,0.00,VWS V14.01,2013-08-20 17:45:00,
2013-08-20 10:49:00,70.6,46.4,29.93,ENE,62,0.0,0.0,42,0.00,,---,0.00,VWS V14.01,2013-08-20 17:49:00,
2013-08-20 10:54:00,70.8,46.6,29.93,ENE,68,0.0,3.0,42,0.00,,---,0.00,VWS V14.01,2013-08-20 17:54:00,
2013-08-20 10:59:00,70.9,45.4,29.92,ENE,68,0.0,3.0,40,0.00,,---,0.00,VWS V14.01,2013-08-20 17:59:00,
2013-08-20 11:00:00,71.0,44.8,29.92,ENE,68,0.0,3.0,39,0.00,,---,0.00,VWS V14.01,2013-08-20 18:00:00,
2013-08-20 11:04:00,71.3,47.0,29.93,ENE,73,0.0,0.0,42,0.00,,---,0.00,VWS V14.01,2013-08-20 18:04:00,
2013-08-20 11:09:00,71.3,45.8,29.93,East,86,0.0,3.0,40,0.00,,---,0.00,VWS V14.01,2013-08-20 18:09:00,
2013-08-20 11:14:00,71.8,45.5,29.93,East,96,0.0,4.0,39,0.00,,---,0.00,VWS V14.01,2013-08-20 18:14:00,
2013-08-20 11:15:00,71.9,45.6,29.93,East,96,0.0,4.0,39,0.00,,---,0.00,VWS V14.01,2013-08-20 18:15:00,
2013-08-20 11:19:00,72.1,45.1,29.92,East,96,0.0,0.0,38,0.00,,---,0.00,VWS V14.01,2013-08-20 18:19:00,
2013-08-20 11:23:00,72.4,46.1,29.92,ESE,106,0.0,4.0,39,0.00,,---,0.00,VWS V14.01,2013-08-20 18:23:00,
2013-08-20 11:28:00,73.0,46.6,29.92,ESE,110,0.0,4.0,39,0.00,,---,0.00,VWS V14.01,2013-08-20 18:28:00,
2013-08-20 11:30:00,73.0,46.6,29.92,ESE,110,0.0,4.0,39,0.00,,---,0.00,VWS V14.01,2013-08-20 18:30:00,
2013-08-20 11:33:00,73.5,45.7,29.92,ESE,110,0.0,4.0,37,0.00,,---,0.00,VWS V14.01,2013-08-20 18:33:00,
2013-08-20 11:38:00,73.8,45.9,29.92,South,189,0.0,6.0,37,0.00,,---,0.00,VWS V14.01,2013-08-20 18:38:00,
2013-08-20 11:43:00,74.2,44.8,29.92,SE,142,5.0,6.0,35,0.00,,---,0.00,VWS V14.01,2013-08-20 18:43:00,
2013-08-20 11:45:00,74.2,45.6,29.92,SE,142,4.0,6.0,36,0.00,,---,0.00,VWS V14.01,2013-08-20 18:45:00,
2013-08-20 11:48:00,74.3,48.4,29.91,SE,142,0.0,4.0,40,0.00,,---,0.00,VWS V14.01,2013-08-20 18:48:00,
2013-08-20 11:53:00,74.9,44.7,29.91,SE,143,0.0,4.0,34,0.00,,---,0.00,VWS V14.01,2013-08-20 18:53:00,
2013-08-20 11:58:00,75.4,45.9,29.91,SE,142,0.0,4.0,35,0.00,,---,0.00,VWS V14.01,2013-08-20 18:58:00,
2013-08-20 12:00:00,75.4,45.9,29.91,SE,142,0.0,4.0,35,0.00,,---,0.00,VWS V14.01,2013-08-20 19:00:00,
2013-08-20 12:03:00,75.5,46.0,29.91,SSE,150,0.0,5.0,35,0.00,,---,0.00,VWS V14.01,2013-08-20 19:03:00,
2013-08-20 12:08:00,75.5,47.4,29.91,SSE,152,0.0,8.0,37,0.00,,---,0.00,VWS V14.01,2013-08-20 19:08:00,
2013-08-20 12:13:00,75.5,43.6,29.90,SSE,150,1.0,8.0,32,0.00,,---,0.00,VWS V14.01,2013-08-20 19:13:00,
2013-08-20 12:15:00,75.5,43.6,29.90,SSE,150,0.0,8.0,32,0.00,,---,0.00,VWS V14.01,2013-08-20 19:15:00,
2013-08-20 12:18:00,75.9,46.3,29.90,SSE,149,0.0,5.0,35,0.00,,---,0.00,VWS V14.01,2013-08-20 19:18:00,
2013-08-20 12:23:00,76.8,47.1,29.90,SSE,150,0.0,5.0,35,0.00,,---,0.00,VWS V14.01,2013-08-20 19:23:00,
2013-08-20 12:28:00,77.2,44.2,29.90,SSE,149,0.0,5.0,31,0.00,,---,0.00,VWS V14.01,2013-08-20 19:28:00,
2013-08-20 12:30:00,77.4,43.6,29.90,SSE,150,0.0,5.0,30,0.00,,---,0.00,VWS V14.01,2013-08-20 19:30:00,
2013-08-20 12:33:00,77.9,44.0,29.90,SSE,163,7.0,7.0,30,0.00,,---,0.00,VWS V14.01,2013-08-20 19:33:00,
2013-08-20 12:38:00,78.2,42.5,29.89,SSE,163,0.0,7.0,28,0.00,,---,0.00,VWS V14.01,2013-08-20 19:38:00,
2013-08-20 12:43:00,78.2,44.3,29.89,South,178,4.0,7.0,30,0.00,,---,0.00,VWS V14.01,2013-08-20 19:43:00,
2013-08-20 12:45:00,78.3,42.5,29.89,South,178,0.0,7.0,28,0.00,,---,0.00,VWS V14.01,2013-08-20 19:45:00,
2013-08-20 12:48:00,78.4,42.6,29.89,SSE,155,1.0,4.0,28,0.00,,---,0.00,VWS V14.01,2013-08-20 19:48:00,
2013-08-20 12:53:00,78.6,43.7,29.89,South,169,0.0,6.0,29,0.00,,---,0.00,VWS V14.01,2013-08-20 19:53:00,
2013-08-20 12:58:00,78.7,43.8,29.88,South,172,0.0,6.0,29,0.00,,---,0.00,VWS V14.01,2013-08-20 19:58:00,
2013-08-20 13:00:00,78.7,45.6,29.88,SW,215,5.0,8.0,31,0.00,,---,0.00,VWS V14.01,2013-08-20 20:00:00,
2013-08-20 13:03:00,78.5,43.6,29.88,SW,214,2.0,7.0,29,0.00,,---,0.00,VWS V14.01,2013-08-20 20:03:00,
2013-08-20 13:08:00,78.9,42.1,29.88,South,190,0.0,7.0,27,0.00,,---,0.00,VWS V14.01,2013-08-20 20:08:00,
2013-08-20 13:13:00,79.5,47.1,29.88,SSW,211,0.0,7.0,32,0.00,,---,0.00,VWS V14.01,2013-08-20 20:13:00,
2013-08-20 13:15:00,79.6,45.5,29.88,SSW,209,0.0,7.0,30,0.00,,---,0.00,VWS V14.01,2013-08-20 20:15:00,
2013-08-20 13:18:00,80.0,45.8,29.88,SSW,207,0.0,2.0,30,0.00,,---,0.00,VWS V14.01,2013-08-20 20:18:00,
2013-08-20 13:23:00,80.3,43.3,29.88,SSE,155,0.0,5.0,27,0.00,,---,0.00,VWS V14.01,2013-08-20 20:23:00,
2013-08-20 13:28:00,80.9,42.8,29.88,SSE,165,0.0,7.0,26,0.00,,---,0.00,VWS V14.01,2013-08-20 20:28:00,
2013-08-20 13:30:00,81.0,43.9,29.88,SSE,148,0.0,7.0,27,0.00,,---,0.00,VWS V14.01,2013-08-20 20:30:00,
2013-08-20 13:33:00,81.1,39.8,29.87,SSW,206,0.0,9.0,23,0.00,,---,0.00,VWS V14.01,2013-08-20 20:33:00,
2013-08-20 13:38:00,81.4,42.2,29.87,SSW,192,0.0,9.0,25,0.00,,---,0.00,VWS V14.01,2013-08-20 20:38:00,
2013-08-20 13:43:00,80.8,37.3,29.87,SW,218,6.0,15.0,21,0.00,,---,0.00,VWS V14.01,2013-08-20 20:43:00,
2013-08-20 13:45:00,80.7,40.6,29.87,SSW,213,8.0,15.0,24,0.00,,---,0.00,VWS V14.01,2013-08-20 20:45:00,
2013-08-20 13:48:00,80.0,36.6,29.87,SW,221,5.0,10.0,21,0.00,,---,0.00,VWS V14.01,2013-08-20 20:48:00,
2013-08-20 13:53:00,79.8,38.8,29.87,SW,221,10.0,12.0,23,0.00,,---,0.00,VWS V14.01,2013-08-20 20:53:00,
2013-08-20 13:58:00,79.8,38.8,29.86,SSW,207,8.0,12.0,23,0.00,,---,0.00,VWS V14.01,2013-08-20 20:58:00,
2013-08-20 14:00:00,80.0,40.0,29.86,SW,218,7.0,12.0,24,0.00,,---,0.00,VWS V14.01,2013-08-20 21:00:00,
2013-08-20 14:03:00,80.4,39.2,29.86,SW,234,7.0,10.0,23,0.00,,---,0.00,VWS V14.01,2013-08-20 21:03:00,
2013-08-20 14:08:00,80.4,41.4,29.86,WSW,242,9.0,12.0,25,0.00,,---,0.00,VWS V14.01,2013-08-20 21:08:00,
2013-08-20 14:13:00,80.4,34.4,29.86,SW,219,4.0,12.0,19,0.00,,---,0.00,VWS V14.01,2013-08-20 21:13:00,
2013-08-20 14:15:00,80.5,37.0,29.86,SW,219,3.0,12.0,21,0.00,,---,0.00,VWS V14.01,2013-08-20 21:15:00,
2013-08-20 14:18:00,81.0,36.2,29.86,SW,214,0.0,6.0,20,0.00,,---,0.00,VWS V14.01,2013-08-20 21:18:00,
2013-08-20 14:23:00,81.8,40.4,29.86,SW,217,4.0,7.0,23,0.00,,---,0.00,VWS V14.01,2013-08-20 21:23:00,
2013-08-20 14:28:00,81.9,38.2,29.85,SSW,210,4.0,8.0,21,0.00,,---,0.00,VWS V14.01,2013-08-20 21:28:00,
2013-08-20 14:30:00,81.9,39.4,29.85,SSW,210,1.0,8.0,22,0.00,,---,0.00,VWS V14.01,2013-08-20 21:30:00,
2013-08-20 14:33:00,81.9,36.9,29.85,SSW,206,0.0,7.0,20,0.00,,---,0.00,VWS V14.01,2013-08-20 21:33:00,
2013-08-20 14:38:00,82.3,37.3,29.85,SW,218,0.0,8.0,20,0.00,,---,0.00,VWS V14.01,2013-08-20 21:38:00,
2013-08-20 14:43:00,82.4,37.3,29.85,SW,216,4.0,10.0,20,0.00,,---,0.00,VWS V14.01,2013-08-20 21:43:00,
2013-08-20 14:45:00,82.5,37.4,29.85,SSW,207,7.0,10.0,20,0.00,,---,0.00,VWS V14.01,2013-08-20 21:45:00,
2013-08-20 14:48:00,82.8,37.7,29.85,SW,226,2.0,8.0,20,0.00,,---,0.00,VWS V14.01,2013-08-20 21:48:00,
2013-08-20 14:53:00,83.2,41.6,29.85,SW,221,5.0,8.0,23,0.00,,---,0.00,VWS V14.01,2013-08-20 21:53:00,
2013-08-20 14:58:00,83.2,39.2,29.84,SW,229,7.0,8.0,21,0.00,,---,0.00,VWS V14.01,2013-08-20 21:58:00,
2013-08-20 15:00:00,83.2,38.0,29.84,WSW,242,3.0,8.0,20,0.00,,---,0.00,VWS V14.01,2013-08-20 22:00:00,
2013-08-20 15:03:00,83.4,38.2,29.84,SW,225,4.0,8.0,20,0.00,,---,0.00,VWS V14.01,2013-08-20 22:03:00,
2013-08-20 15:08:00,83.4,36.9,29.84,WSW,246,8.0,10.0,19,0.00,,---,0.00,VWS V14.01,2013-08-20 22:08:00,
2013-08-20 15:13:00,83.6,37.0,29.84,WSW,258,9.0,10.0,19,0.00,,---,0.00,VWS V14.01,2013-08-20 22:13:00,
2013-08-20 15:15:00,83.6,34.2,29.84,WSW,254,4.0,11.0,17,0.00,,---,0.00,VWS V14.01,2013-08-20 22:15:00,
2013-08-20 15:18:00,83.6,39.6,29.84,WSW,240,10.0,10.0,21,0.00,,---,0.00,VWS V14.01,2013-08-20 22:18:00,
2013-08-20 15:23:00,83.6,34.2,29.84,WSW,257,7.0,10.0,17,0.00,,---,0.00,VWS V14.01,2013-08-20 22:23:00,
2013-08-20 15:28:00,83.9,33.0,29.84,WSW,252,8.0,13.0,16,0.00,,---,0.00,VWS V14.01,2013-08-20 22:28:00,
2013-08-20 15:30:00,83.9,35.9,29.84,West,259,4.0,13.0,18,0.00,,---,0.00,VWS V14.01,2013-08-20 22:30:00,
2013-08-20 15:33:00,84.2,36.2,29.84,West,259,5.0,10.0,18,0.00,,---,0.00,VWS V14.01,2013-08-20 22:33:00,
2013-08-20 15:38:00,84.4,39.0,29.83,West,276,6.0,12.0,20,0.00,,---,0.00,VWS V14.01,2013-08-20 22:38:00,
2013-08-20 15:43:00,84.4,34.9,29.83,WSW,252,6.0,14.0,17,0.00,,---,0.00,VWS V14.01,2013-08-20 22:43:00,
2013-08-20 15:45:00,84.4,34.9,29.83,WSW,252,4.0,14.0,17,0.00,,---,0.00,VWS V14.01,2013-08-20 22:45:00,
2013-08-20 15:48:00,84.4,36.3,29.83,West,273,5.0,7.0,18,0.00,,---,0.00,VWS V14.01,2013-08-20 22:48:00,
2013-08-20 15:53:00,84.5,37.8,29.83,West,263,8.0,13.0,19,0.00,,---,0.00,VWS V14.01,2013-08-20 22:53:00,
2013-08-20 15:58:00,84.5,36.4,29.83,West,262,8.0,13.0,18,0.00,,---,0.00,VWS V14.01,2013-08-20 22:58:00,
2013-08-20 16:00:00,84.5,36.4,29.83,West,277,11.0,13.0,18,0.00,,---,0.00,VWS V14.01,2013-08-20 23:00:00,
2013-08-20 16:03:00,84.3,36.2,29.83,West,279,5.0,13.0,18,0.00,,---,0.00,VWS V14.01,2013-08-20 23:03:00,
2013-08-20 16:08:00,84.1,38.7,29.82,West,267,8.0,19.0,20,0.00,,---,0.00,VWS V14.01,2013-08-20 23:08:00,
2013-08-20 16:13:00,83.9,38.6,29.82,WNW,288,8.0,19.0,20,0.00,,---,0.00,VWS V14.01,2013-08-20 23:13:00,
2013-08-20 16:15:00,84.0,42.3,29.82,WNW,284,9.0,19.0,23,0.00,,---,0.00,VWS V14.01,2013-08-20 23:15:00,
2013-08-20 16:18:00,83.9,39.8,29.82,WNW,292,12.0,17.0,21,0.00,,---,0.00,VWS V14.01,2013-08-20 23:18:00,
2013-08-20 16:23:00,84.3,40.2,29.82,WNW,294,13.0,17.0,21,0.00,,---,0.00,VWS V14.01,2013-08-20 23:23:00,
2013-08-20 16:28:00,84.3,38.9,29.82,WNW,287,7.0,17.0,20,0.00,,---,0.00,VWS V14.01,2013-08-20 23:28:00,
2013-08-20 16:30:00,84.3,36.2,29.82,West,268,13.0,17.0,18,0.00,,---,0.00,VWS V14.01,2013-08-20 23:30:00,
2013-08-20 16:33:00,84.3,34.8,29.81,West,277,9.0,15.0,17,0.00,,---,0.00,VWS V14.01,2013-08-20 23:33:00,
2013-08-20 16:38:00,84.5,39.1,29.81,West,259,7.0,16.0,20,0.00,,---,0.00,VWS V14.01,2013-08-20 23:38:00,
2013-08-20 16:43:00,84.4,37.7,29.81,West,281,6.0,16.0,19,0.00,,---,0.00,VWS V14.01,2013-08-20 23:43:00,
2013-08-20 16:45:00,84.4,39.0,29.81,West,278,7.0,16.0,20,0.00,,---,0.00,VWS V14.01,2013-08-20 23:45:00,
2013-08-20 16:48:00,84.4,40.2,29.81,West,281,11.0,11.0,21,0.00,,---,0.00,VWS V14.01,2013-08-20 23:48:00,
2013-08-20 16:53:00,84.3,34.8,29.81,WNW,288,11.0,17.0,17,0.00,,---,0.00,VWS V14.01,2013-08-20 23:53:00,
2013-08-20 16:58:00,83.9,37.3,29.81,West,275,5.0,17.0,19,0.00,,---,0.00,VWS V14.01,2013-08-20 23:58:00,
2013-08-20 17:00:00,83.8,37.2,29.81,WNW,283,10.0,17.0,19,0.00,,---,0.00,VWS V14.01,2013-08-21 00:00:00,
2013-08-20 17:03:00,83.7,38.4,29.81,WNW,287,8.0,13.0,20,0.00,,---,0.00,VWS V14.01,2013-08-21 00:03:00,
2013-08-20 17:07:00,83.8,38.5,29.81,West,277,10.0,13.0,20,0.00,,---,0.00,VWS V14.01,2013-08-21 00:07:00,
2013-08-20 17:12:00,84.0,38.7,29.81,WNW,286,7.0,14.0,20,0.00,,---,0.00,VWS V14.01,2013-08-21 00:12:00,
2013-08-20 17:15:00,83.9,41.0,29.81,West,281,9.0,14.0,22,0.00,,---,0.00,VWS V14.01,2013-08-21 00:15:00,
2013-08-20 17:17:00,83.6,40.8,29.81,West,274,10.0,17.0,22,0.00,,---,0.00,VWS V14.01,2013-08-21 00:17:00,
2013-08-20 17:22:00,83.6,40.8,29.81,WNW,291,6.0,17.0,22,0.00,,---,0.00,VWS V14.01,2013-08-21 00:22:00,
2013-08-20 17:27:00,83.4,39.4,29.80,West,280,13.0,17.0,21,0.00,,---,0.00,VWS V14.01,2013-08-21 00:27:00,
2013-08-20 17:30:00,83.5,38.2,29.81,West,266,10.0,17.0,20,0.00,,---,0.00,VWS V14.01,2013-08-21 00:30:00,
2013-08-20 17:32:00,83.6,40.8,29.81,WNW,282,6.0,14.0,22,0.00,,---,0.00,VWS V14.01,2013-08-21 00:32:00,
2013-08-20 17:37:00,83.6,39.6,29.81,WNW,285,11.0,19.0,21,0.00,,---,0.00,VWS V14.01,2013-08-21 00:37:00,
2013-08-20 17:42:00,83.8,37.2,29.81,West,273,8.0,19.0,19,0.00,,---,0.00,VWS V14.01,2013-08-21 00:42:00,
2013-08-20 17:45:00,83.8,40.9,29.80,WNW,286,6.0,19.0,22,0.00,,---,0.00,VWS V14.01,2013-08-21 00:45:00,
2013-08-20 17:47:00,83.6,41.9,29.81,WNW,286,10.0,16.0,23,0.00,,---,0.00,VWS V14.01,2013-08-21 00:47:00,
2013-08-20 17:52:00,83.4,39.4,29.81,WNW,294,8.0,16.0,21,0.00,,---,0.00,VWS V14.01,2013-08-21 00:52:00,
2013-08-20 17:57:00,83.1,41.5,29.81,West,276,4.0,16.0,23,0.00,,---,0.00,VWS V14.01,2013-08-21 00:57:00,
2013-08-20 18:00:00,83.0,41.4,29.81,West,277,10.0,16.0,23,0.00,,---,0.00,VWS V14.01,2013-08-21 01:00:00,
2013-08-20 18:02:00,82.8,37.7,29.80,WNW,290,8.0,14.0,20,0.00,,---,0.00,VWS V14.01,2013-08-21 01:02:00,
2013-08-20 18:07:00,82.5,39.9,29.80,WNW,292,8.0,14.0,22,0.00,,---,0.00,VWS V14.01,2013-08-21 01:07:00,
2013-08-20 18:12:00,82.3,38.5,29.81,WNW,286,8.0,17.0,21,0.00,,---,0.00,VWS V14.01,2013-08-21 01:12:00,
2013-08-20 18:15:00,82.2,38.4,29.81,WNW,283,7.0,17.0,21,0.00,,---,0.00,VWS V14.01,2013-08-21 01:15:00,
2013-08-20 18:17:00,82.2,38.4,29.81,West,278,8.0,10.0,21,0.00,,---,0.00,VWS V14.01,2013-08-21 01:17:00,
2013-08-20 18:19:00,82.2,38.4,29.81,WNW,286,8.0,10.0,21,0.00,,---,0.00,VWS V14.01,2013-08-21 01:19:00,
2013-08-20 18:24:00,81.9,39.4,29.80,West,281,9.0,16.0,22,0.00,,---,0.00,VWS V14.01,2013-08-21 01:24:00,
2013-08-20 18:29:00,82.1,37.1,29.80,West,275,14.0,16.0,20,0.00,,---,0.00,VWS V14.01,2013-08-21 01:29:00,
2013-08-20 18:30:00,82.1,37.1,29.80,West,278,12.0,16.0,20,0.00,,---,0.00,VWS V14.01,2013-08-21 01:30:00,
2013-08-20 18:34:00,82.1,38.3,29.80,West,279,7.0,13.0,21,0.00,,---,0.00,VWS V14.01,2013-08-21 01:34:00,
2013-08-20 18:39:00,81.8,34.2,29.80,WNW,292,14.0,15.0,18,0.00,,---,0.00,VWS V14.01,2013-08-21 01:39:00,
2013-08-20 18:44:00,81.6,39.1,29.80,West,277,13.0,16.0,22,0.00,,---,0.00,VWS V14.01,2013-08-21 01:44:00,
2013-08-20 18:45:00,81.6,36.7,29.80,West,281,12.0,16.0,20,0.00,,---,0.00,VWS V14.01,2013-08-21 01:45:00,
2013-08-20 18:49:00,81.3,37.7,29.80,WNW,288,13.0,15.0,21,0.00,,---,0.00,VWS V14.01,2013-08-21 01:49:00,
2013-08-20 18:54:00,81.1,35.0,29.80,WNW,290,18.0,18.0,19,0.00,,---,0.00,VWS V14.01,2013-08-21 01:54:00,
2013-08-20 18:59:00,81.2,37.6,29.80,WNW,290,3.0,18.0,21,0.00,,---,0.00,VWS V14.01,2013-08-21 01:59:00,
2013-08-20 19:00:00,81.1,37.5,29.80,West,278,6.0,18.0,21,0.00,,---,0.00,VWS V14.01,2013-08-21 02:00:00,
2013-08-20 19:04:00,80.9,36.1,29.80,NW,315,5.0,10.0,20,0.00,,---,0.00,VWS V14.01,2013-08-21 02:04:00,
2013-08-20 19:09:00,81.1,35.0,29.80,NW,318,3.0,4.0,19,0.00,,---,0.00,VWS V14.01,2013-08-21 02:09:00,
2013-08-20 19:14:00,81.3,35.1,29.80,NW,313,5.0,7.0,19,0.00,,---,0.00,VWS V14.01,2013-08-21 02:14:00,
2013-08-20 19:15:00,81.3,36.4,29.80,NW,325,5.0,7.0,20,0.00,,---,0.00,VWS V14.01,2013-08-21 02:15:00,
2013-08-20 19:19:00,81.3,35.1,29.80,NW,311,8.0,12.0,19,0.00,,---,0.00,VWS V14.01,2013-08-21 02:19:00,
2013-08-20 19:24:00,80.8,36.0,29.80,WNW,302,7.0,13.0,20,0.00,,---,0.00,VWS V14.01,2013-08-21 02:24:00,
2013-08-20 19:29:00,80.4,36.9,29.80,NW,320,6.0,13.0,21,0.00,,---,0.00,VWS V14.01,2013-08-21 02:29:00,
2013-08-20 19:30:00,80.3,36.8,29.80,NW,321,6.0,13.0,21,0.00,,---,0.00,VWS V14.01,2013-08-21 02:30:00,
2013-08-20 19:34:00,79.8,36.4,29.80,NW,318,6.0,10.0,21,0.00,,---,0.00,VWS V14.01,2013-08-21 02:34:00,
2013-08-20 19:39:00,79.2,34.7,29.81,NNW,329,3.0,10.0,20,0.00,,---,0.00,VWS V14.01,2013-08-21 02:39:00,
2013-08-20 19:44:00,78.9,36.9,29.81,NW,323,8.0,10.0,22,0.00,,---,0.00,VWS V14.01,2013-08-21 02:44:00,
2013-08-20 19:45:00,78.9,35.7,29.81,NW,323,5.0,10.0,21,0.00,,---,0.00,VWS V14.01,2013-08-21 02:45:00,
2013-08-20 19:49:00,78.6,35.4,29.81,NW,323,6.0,9.0,21,0.00,,---,0.00,VWS V14.01,2013-08-21 02:49:00,
2013-08-20 19:54:00,78.3,35.2,29.81,NW,316,7.0,9.0,21,0.00,,---,0.00,VWS V14.01,2013-08-21 02:54:00,
2013-08-20 19:59:00,78.1,33.8,29.81,NW,313,12.0,17.0,20,0.00,,---,0.00,VWS V14.01,2013-08-21 02:59:00,
2013-08-20 20:00:00,78.1,33.8,29.81,NW,317,12.0,17.0,20,0.00,,---,0.00,VWS V14.01,2013-08-21 03:00:00,
2013-08-20 20:04:00,78.1,33.8,29.81,NW,313,11.0,13.0,20,0.00,,---,0.00,VWS V14.01,2013-08-21 03:04:00,
2013-08-20 20:09:00,77.9,33.6,29.82,NW,315,10.0,15.0,20,0.00,,---,0.00,VWS V14.01,2013-08-21 03:09:00,
2013-08-20 20:14:00,77.5,33.3,29.82,NW,309,7.0,15.0,20,0.00,,---,0.00,VWS V14.01,2013-08-21 03:14:00,
2013-08-20 20:15:00,77.4,33.2,29.82,NW,315,6.0,15.0,20,0.00,,---,0.00,VWS V14.01,2013-08-21 03:15:00,
2013-08-20 20:19:00,77.0,32.9,29.82,NW,313,3.0,8.0,20,0.00,,---,0.00,VWS V14.01,2013-08-21 03:19:00,
2013-08-20 20:24:00,76.5,32.5,29.82,NW,306,1.0,8.0,20,0.00,,---,0.00,VWS V14.01,2013-08-21 03:24:00,
2013-08-20 20:29:00,76.0,32.1,29.82,NW,321,4.0,8.0,20,0.00,,---,0.00,VWS V14.01,2013-08-21 03:29:00,
2013-08-20 20:30:00,76.0,32.1,29.82,NW,321,4.0,8.0,20,0.00,,---,0.00,VWS V14.01,2013-08-21 03:30:00,
2013-08-20 20:34:00,75.7,31.8,29.82,NNW,330,0.0,8.0,20,0.00,,---,0.00,VWS V14.01,2013-08-21 03:34:00,
2013-08-20 20:39:00,75.6,33.0,29.83,NW,319,0.0,8.0,21,0.00,,---,0.00,VWS V14.01,2013-08-21 03:39:00,
2013-08-20 20:44:00,75.4,31.6,29.83,NNW,329,2.0,10.0,20,0.00,,---,0.00,VWS V14.01,2013-08-21 03:44:00,
2013-08-20 20:45:00,75.4,31.6,29.83,NNW,329,0.0,10.0,20,0.00,,---,0.00,VWS V14.01,2013-08-21 03:45:00,
2013-08-20 20:49:00,74.6,30.9,29.83,NNW,330,0.0,2.0,20,0.00,,---,0.00,VWS V14.01,2013-08-21 03:49:00,
2013-08-20 20:54:00,73.7,34.7,29.83,NW,325,0.0,2.0,24,0.00,,---,0.00,VWS V14.01,2013-08-21 03:54:00,
2013-08-20 20:59:00,72.4,31.4,29.83,NW,309,0.0,2.0,22,0.00,,---,0.00,VWS V14.01,2013-08-21 03:59:00,
2013-08-20 21:00:00,72.2,30.1,29.83,NW,309,0.0,2.0,21,0.00,,---,0.00,VWS V14.01,2013-08-21 04:00:00,
2013-08-20 21:01:00,72.2,30.1,29.83,NW,309,0.0,0.0,21,0.00,,---,0.00,VWS V14.01,2013-08-21 04:01:00,
2013-08-20 21:06:00,72.4,30.3,29.84,NW,309,0.0,0.0,21,0.00,,---,0.00,VWS V14.01,2013-08-21 04:06:00,
2013-08-20 21:11:00,73.3,29.8,29.84,NW,309,0.0,0.0,20,0.00,,---,0.00,VWS V14.01,2013-08-21 04:11:00,
2013-08-20 21:15:00,73.5,30.0,29.84,WNW,300,0.0,1.0,20,0.00,,---,0.00,VWS V14.01,2013-08-21 04:15:00,
2013-08-20 21:16:00,73.5,30.0,29.84,WNW,300,0.0,0.0,20,0.00,,---,0.00,VWS V14.01,2013-08-21 04:16:00,
2013-08-20 21:21:00,73.1,32.0,29.84,WNW,300,0.0,0.0,22,0.00,,---,0.00,VWS V14.01,2013-08-21 04:21:00,
2013-08-20 21:26:00,71.3,33.7,29.85,WNW,300,0.0,0.0,25,0.00,,---,0.00,VWS V14.01,2013-08-21 04:26:00,
2013-08-20 21:30:00,70.0,32.6,29.85,WNW,300,0.0,0.0,25,0.00,,---,0.00,VWS V14.01,2013-08-21 04:30:00,
2013-08-20 21:31:00,69.8,31.4,29.85,WNW,300,0.0,0.0,24,0.00,,---,0.00,VWS V14.01,2013-08-21 04:31:00,
2013-08-20 21:36:00,70.2,29.6,29.85,WNW,300,0.0,0.0,22,0.00,,---,0.00,VWS V14.01,2013-08-21 04:36:00,
2013-08-20 21:41:00,70.6,31.0,29.85,WNW,300,0.0,0.0,23,0.00,,---,0.00,VWS V14.01,2013-08-21 04:41:00,
2013-08-20 21:45:00,70.7,30.0,29.85,WNW,300,0.0,0.0,22,0.00,,---,0.00,VWS V14.01,2013-08-21 04:45:00,
2013-08-20 21:46:00,70.8,30.1,29.85,WNW,300,0.0,0.0,22,0.00,,---,0.00,VWS V14.01,2013-08-21 04:46:00,
2013-08-20 21:51:00,70.7,30.0,29.86,WNW,300,0.0,0.0,22,0.00,,---,0.00,VWS V14.01,2013-08-21 04:51:00,
2013-08-20 21:56:00,70.5,27.5,29.86,WNW,300,0.0,0.0,20,0.00,,---,0.00,VWS V14.01,2013-08-21 04:56:00,
2013-08-20 22:00:00,70.2,35.6,29.86,NNE,26,0.0,0.0,28,0.00,,---,0.00,VWS V14.01,2013-08-21 05:00:00,
2013-08-20 22:01:00,69.7,32.3,29.86,NNE,26,0.0,0.0,25,0.00,,---,0.00,VWS V14.01,2013-08-21 05:01:00,
2013-08-20 22:05:00,68.5,32.3,29.86,NNE,26,0.0,0.0,26,0.00,,---,0.00,VWS V14.01,2013-08-21 05:05:00,
2013-08-20 22:10:00,67.3,38.7,29.86,NNE,26,0.0,0.0,35,0.00,,---,0.00,VWS V14.01,2013-08-21 05:10:00,
2013-08-20 22:15:00,65.4,34.0,29.86,NNE,26,0.0,0.0,31,0.00,,---,0.00,VWS V14.01,2013-08-21 05:15:00,
2013-08-20 22:20:00,65.3,37.7,29.86,NNE,26,0.0,0.0,36,0.00,,---,0.00,VWS V14.01,2013-08-21 05:20:00,
2013-08-20 22:25:00,65.3,31.4,29.86,NNE,26,0.0,0.0,28,0.00,,---,0.00,VWS V14.01,2013-08-21 05:25:00,
2013-08-20 22:30:00,65.4,31.5,29.86,NNE,26,0.0,0.0,28,0.00,,---,0.00,VWS V14.01,2013-08-21 05:30:00,
2013-08-20 22:35:00,65.4,34.0,29.86,North,5,0.0,4.0,31,0.00,,---,0.00,VWS V14.01,2013-08-21 05:35:00,
2013-08-20 22:40:00,64.8,33.5,29.86,North,5,0.0,4.0,31,0.00,,---,0.00,VWS V14.01,2013-08-21 05:40:00,
2013-08-20 22:45:00,64.0,33.6,29.86,North,360,0.0,0.0,32,0.00,,---,0.00,VWS V14.01,2013-08-21 05:45:00,
2013-08-20 22:50:00,63.5,33.1,29.86,North,360,0.0,0.0,32,0.00,,---,0.00,VWS V14.01,2013-08-21 05:50:00,
2013-08-20 22:55:00,62.9,31.8,29.86,North,5,0.0,0.0,31,0.00,,---,0.00,VWS V14.01,2013-08-21 05:55:00,
2013-08-20 23:00:00,63.1,32.8,29.86,North,360,0.0,0.0,32,0.00,,---,0.00,VWS V14.01,2013-08-21 06:00:00,
2013-08-20 23:05:00,62.7,35.4,29.86,North,360,0.0,0.0,36,0.00,,---,0.00,VWS V14.01,2013-08-21 06:05:00,
2013-08-20 23:10:00,61.6,33.0,29.86,North,5,0.0,1.0,34,0.00,,---,0.00,VWS V14.01,2013-08-21 06:10:00,
2013-08-20 23:15:00,60.7,32.9,29.86,North,5,0.0,0.0,35,0.00,,---,0.00,VWS V14.01,2013-08-21 06:15:00,
2013-08-20 23:20:00,60.3,34.6,29.86,North,5,0.0,0.0,38,0.00,,---,0.00,VWS V14.01,2013-08-21 06:20:00,
2013-08-20 23:25:00,60.7,32.2,29.86,North,5,0.0,0.0,34,0.00,,---,0.00,VWS V14.01,2013-08-21 06:25:00,
2013-08-20 23:30:00,61.5,29.8,29.86,ENE,57,0.0,0.0,30,0.00,,---,0.00,VWS V14.01,2013-08-21 06:30:00,
2013-08-20 23:35:00,62.0,32.6,29.87,ENE,72,0.0,0.0,33,0.00,,---,0.00,VWS V14.01,2013-08-21 06:35:00,
2013-08-20 23:40:00,63.1,31.2,29.87,ENE,72,0.0,0.0,30,0.00,,---,0.00,VWS V14.01,2013-08-21 06:40:00,
2013-08-20 23:45:00,64.2,31.3,29.87,ENE,72,0.0,0.0,29,0.00,,---,0.00,VWS V14.01,2013-08-21 06:45:00,
2013-08-20 23:50:00,63.8,31.0,29.87,ENE,72,0.0,1.0,29,0.00,,---,0.00,VWS V14.01,2013-08-21 06:50:00,
2013-08-20 23:55:00,63.4,29.8,29.87,SSE,162,0.0,5.0,28,0.00,,---,0.00,VWS V14.01,2013-08-21 06:55:00,